Time;durP1;ratioP1;P1;durP2;ratioP2;P2;SDS_P1;SDS_P2;PMS_P1;PMS_P2;Temp;Humidity;BMP_temperature;BMP_pressure;BME280_temperature;BME280_humidity;BME280_pressure;Samples;Min_cycle;Max_cycle;Signal;HPM_P1;HPM_P2
2021/09/28 00:01:18;;;;;;;0.00;0.00;;;11.10;99.90;;;;;;6234746;23;20337;-85
2021/09/28 00:03:45;;;;;;;0.00;0.00;;;11.00;99.90;;;;;;6209048;23;20023;-86
2021/09/28 00:06:12;;;;;;;0.00;0.00;;;11.00;99.90;;;;;;6185437;23;20023;-86
2021/09/28 00:08:41;;;;;;;0.00;0.00;;;11.00;99.90;;;;;;6209204;23;20009;-87
2021/09/28 00:11:12;;;;;;;0.00;0.00;;;11.00;99.90;;;;;;6185596;23;20012;-86
2021/09/28 00:13:39;;;;;;;0.00;0.00;;;11.00;99.90;;;;;;6184811;23;20016;-87
2021/09/28 00:16:07;;;;;;;0.15;0.13;;;11.00;99.90;;;;;;6185072;23;20011;-86
2021/09/28 00:18:34;;;;;;;0.00;0.00;;;11.00;99.90;;;;;;6209118;23;20044;-86
2021/09/28 00:21:02;;;;;;;0.10;0.10;;;10.90;99.90;;;;;;6184739;23;20013;-86
2021/09/28 00:23:29;;;;;;;0.03;0.03;;;11.00;99.90;;;;;;6184910;23;20433;-86
2021/09/28 00:25:55;;;;;;;0.10;0.10;;;10.90;99.90;;;;;;6184317;23;20151;-86
2021/09/28 00:28:24;;;;;;;0.00;0.00;;;10.90;99.90;;;;;;6209873;23;20067;-86
2021/09/28 00:30:51;;;;;;;0.00;0.00;;;10.90;99.90;;;;;;6185265;23;20016;-87
2021/09/28 00:33:18;;;;;;;0.00;0.00;;;10.90;99.90;;;;;;6209105;23;20066;-86
2021/09/28 00:35:44;;;;;;;0.00;0.00;;;10.90;99.90;;;;;;6208633;23;20013;-86
2021/09/28 00:38:11;;;;;;;0.17;0.10;;;11.00;99.90;;;;;;6209257;23;20400;-86
2021/09/28 00:40:38;;;;;;;0.10;0.10;;;11.00;99.90;;;;;;6209268;23;20013;-86
2021/09/28 00:43:05;;;;;;;0.00;0.00;;;10.90;99.90;;;;;;6184354;23;20020;-86
2021/09/28 00:45:31;;;;;;;0.00;0.00;;;10.90;99.90;;;;;;6184737;23;20009;-87
2021/09/28 00:47:58;;;;;;;0.03;0.03;;;11.00;99.90;;;;;;6208798;23;20013;-86
2021/09/28 00:50:26;;;;;;;0.00;0.00;;;11.00;99.90;;;;;;6184562;23;20020;-86
2021/09/28 00:52:53;;;;;;;0.00;0.00;;;10.90;99.90;;;;;;6184041;23;20091;-86
2021/09/28 00:55:20;;;;;;;0.10;0.10;;;10.90;99.90;;;;;;6208439;23;20048;-86
2021/09/28 00:57:47;;;;;;;0.00;0.00;;;10.90;99.90;;;;;;6208130;23;20024;-86
2021/09/28 01:00:14;;;;;;;0.00;0.00;;;10.90;99.90;;;;;;6184278;23;20322;-86
2021/09/28 01:02:42;;;;;;;0.00;0.00;;;10.80;99.90;;;;;;6184379;23;20449;-86
2021/09/28 01:05:09;;;;;;;0.00;0.00;;;10.80;99.90;;;;;;6220825;23;20012;-86
2021/09/28 01:07:36;;;;;;;0.10;0.10;;;10.80;99.90;;;;;;6209253;23;20437;-86
2021/09/28 01:10:03;;;;;;;0.00;0.00;;;10.80;99.90;;;;;;6233548;23;20034;-86
2021/09/28 01:12:30;;;;;;;0.00;0.00;;;10.80;99.90;;;;;;6233523;23;20005;-86
2021/09/28 01:14:57;;;;;;;0.00;0.00;;;10.80;99.90;;;;;;6233474;23;20051;-86
2021/09/28 01:17:23;;;;;;;0.00;0.00;;;10.80;99.90;;;;;;6233840;23;20036;-86
2021/09/28 01:19:50;;;;;;;0.00;0.00;;;10.80;99.90;;;;;;6233061;23;20019;-86
2021/09/28 01:22:18;;;;;;;0.10;0.10;;;10.70;99.90;;;;;;6208483;23;20070;-86
2021/09/28 01:24:47;;;;;;;0.00;0.00;;;10.70;99.90;;;;;;6233030;23;20021;-86
2021/09/28 01:27:14;;;;;;;0.00;0.00;;;10.70;99.90;;;;;;6209142;23;20008;-86
2021/09/28 01:29:42;;;;;;;0.00;0.00;;;10.70;99.90;;;;;;6233761;23;20008;-86
2021/09/28 01:32:09;;;;;;;0.00;0.00;;;10.70;99.90;;;;;;6208113;23;20051;-86
2021/09/28 01:34:36;;;;;;;0.00;0.00;;;10.70;99.90;;;;;;6209102;23;20035;-85
2021/09/28 01:37:03;;;;;;;0.00;0.00;;;10.70;99.90;;;;;;6208478;23;20044;-86
2021/09/28 01:39:30;;;;;;;0.05;0.05;;;10.70;99.90;;;;;;6209134;23;20020;-85
2021/09/28 01:41:57;;;;;;;0.00;0.00;;;10.70;99.90;;;;;;6208017;23;20441;-86
2021/09/28 01:44:24;;;;;;;0.00;0.00;;;10.70;99.90;;;;;;6208216;23;20012;-86
2021/09/28 01:46:51;;;;;;;0.00;0.00;;;10.70;99.90;;;;;;6233083;23;20047;-88
2021/09/28 01:49:19;;;;;;;0.10;0.10;;;10.70;99.90;;;;;;6233429;23;20032;-86
2021/09/28 01:51:46;;;;;;;0.10;0.10;;;10.70;99.90;;;;;;6233573;23;20307;-86
2021/09/28 01:54:13;;;;;;;0.00;0.00;;;10.70;99.90;;;;;;6207746;23;20012;-86
2021/09/28 01:56:40;;;;;;;0.00;0.00;;;10.60;99.90;;;;;;6258143;23;20013;-86
2021/09/28 01:59:07;;;;;;;0.03;0.03;;;10.60;99.90;;;;;;6233106;23;20013;-86
2021/09/28 02:01:35;;;;;;;0.00;0.00;;;10.60;99.90;;;;;;6208640;23;20021;-86
2021/09/28 02:04:02;;;;;;;0.00;0.00;;;10.60;99.90;;;;;;6232692;23;20103;-86
2021/09/28 02:06:31;;;;;;;0.00;0.00;;;10.60;99.90;;;;;;6183803;23;20023;-86
2021/09/28 02:08:58;;;;;;;0.03;0.03;;;10.60;99.90;;;;;;6208056;23;20032;-86
2021/09/28 02:11:25;;;;;;;0.00;0.00;;;10.50;99.90;;;;;;6184155;23;20012;-86
2021/09/28 02:13:53;;;;;;;0.00;0.00;;;10.50;99.90;;;;;;6208168;23;20433;-86
2021/09/28 02:16:20;;;;;;;0.00;0.00;;;10.40;99.90;;;;;;6184097;23;20027;-86
2021/09/28 02:18:47;;;;;;;0.00;0.00;;;10.50;99.90;;;;;;6183301;23;20095;-86
2021/09/28 02:21:13;;;;;;;0.00;0.00;;;10.50;99.90;;;;;;6183007;23;20436;-86
2021/09/28 02:23:40;;;;;;;0.00;0.00;;;10.40;99.90;;;;;;6183529;23;20059;-85
2021/09/28 02:26:07;;;;;;;0.00;0.00;;;10.40;99.90;;;;;;6207439;23;20023;-87
2021/09/28 02:28:34;;;;;;;0.00;0.00;;;10.40;99.90;;;;;;6183122;23;20098;-86
2021/09/28 02:31:01;;;;;;;0.10;0.10;;;10.40;99.90;;;;;;6207742;23;20433;-87
2021/09/28 02:33:28;;;;;;;0.10;0.10;;;10.40;99.90;;;;;;6183782;23;20070;-86
2021/09/28 02:35:55;;;;;;;0.00;0.00;;;10.40;99.90;;;;;;6207593;23;20040;-86
2021/09/28 02:38:22;;;;;;;0.00;0.00;;;10.40;99.90;;;;;;6232174;23;20457;-86
2021/09/28 02:40:48;;;;;;;0.00;0.00;;;10.40;99.90;;;;;;6182937;23;20019;-85
2021/09/28 02:43:15;;;;;;;0.00;0.00;;;10.40;99.90;;;;;;6182965;23;20052;-86
2021/09/28 02:45:47;;;;;;;0.00;0.00;;;10.40;99.90;;;;;;6182716;23;20015;-86
2021/09/28 02:48:15;;;;;;;0.00;0.00;;;10.40;99.90;;;;;;6184457;23;20047;-86
2021/09/28 02:50:43;;;;;;;0.00;0.00;;;10.40;99.90;;;;;;6183408;23;20429;-86
2021/09/28 02:53:10;;;;;;;0.00;0.00;;;10.30;99.90;;;;;;6183255;23;20008;-86
2021/09/28 02:55:37;;;;;;;0.00;0.00;;;10.30;99.90;;;;;;6182668;23;20017;-86
2021/09/28 02:58:03;;;;;;;0.00;0.00;;;10.30;99.90;;;;;;6207513;23;20016;-87
2021/09/28 03:00:31;;;;;;;0.10;0.10;;;10.30;99.90;;;;;;6183645;23;20013;-86
2021/09/28 03:02:57;;;;;;;0.00;0.00;;;10.30;99.90;;;;;;6182934;23;20016;-86
2021/09/28 03:05:24;;;;;;;0.00;0.00;;;10.30;99.90;;;;;;6197886;23;20048;-86
2021/09/28 03:07:51;;;;;;;0.00;0.00;;;10.30;99.90;;;;;;6232779;23;20020;-86
2021/09/28 03:10:18;;;;;;;0.10;0.10;;;10.30;99.90;;;;;;6207112;23;20337;-86
2021/09/28 03:12:44;;;;;;;0.00;0.00;;;10.30;99.90;;;;;;6207740;23;20019;-86
2021/09/28 03:15:11;;;;;;;0.00;0.00;;;10.30;99.90;;;;;;6207715;23;20016;-86
2021/09/28 03:17:38;;;;;;;0.00;0.00;;;10.20;99.90;;;;;;6207768;23;20512;-86
2021/09/28 03:20:06;;;;;;;0.00;0.00;;;10.20;99.90;;;;;;6207358;23;20396;-87
2021/09/28 03:22:33;;;;;;;0.00;0.00;;;10.20;99.90;;;;;;6232285;23;20017;-86
2021/09/28 03:25:00;;;;;;;0.00;0.00;;;10.20;99.90;;;;;;6231946;23;20012;-86
2021/09/28 03:27:26;;;;;;;0.00;0.00;;;10.20;99.90;;;;;;6231738;23;20429;-86
2021/09/28 03:29:53;;;;;;;0.03;0.03;;;10.20;99.90;;;;;;6207715;23;20012;-86
2021/09/28 03:32:20;;;;;;;0.00;0.00;;;10.20;99.90;;;;;;6207295;23;20016;-86
2021/09/28 03:34:47;;;;;;;0.00;0.00;;;10.20;99.90;;;;;;6207177;23;20024;-85
2021/09/28 03:37:14;;;;;;;0.03;0.03;;;10.20;99.90;;;;;;6207185;23;20017;-86
2021/09/28 03:39:40;;;;;;;0.10;0.10;;;10.20;99.90;;;;;;6207851;23;20467;-86
2021/09/28 03:42:07;;;;;;;0.10;0.10;;;10.20;99.90;;;;;;6232196;23;20016;-87
2021/09/28 03:44:34;;;;;;;0.00;0.00;;;10.10;99.90;;;;;;6232433;23;20314;-86
2021/09/28 03:47:00;;;;;;;0.00;0.00;;;10.20;99.90;;;;;;6232140;23;20445;-86
2021/09/28 03:49:27;;;;;;;0.00;0.00;;;10.20;99.90;;;;;;6231842;23;20329;-86
2021/09/28 03:51:54;;;;;;;0.00;0.00;;;10.20;99.90;;;;;;6207816;23;20019;-86
2021/09/28 03:54:20;;;;;;;0.00;0.00;;;10.20;99.90;;;;;;6207188;23;20326;-86
2021/09/28 03:56:47;;;;;;;0.10;0.10;;;10.20;99.90;;;;;;6206945;23;20012;-86
2021/09/28 03:59:14;;;;;;;0.00;0.00;;;10.20;99.90;;;;;;6256633;23;20051;-86
2021/09/28 04:01:41;;;;;;;0.05;0.05;;;10.20;99.90;;;;;;6231886;23;20017;-86
2021/09/28 04:04:07;;;;;;;0.00;0.00;;;10.10;99.90;;;;;;6207149;23;20433;-88
2021/09/28 04:06:34;;;;;;;0.00;0.00;;;10.10;99.90;;;;;;6182605;23;20013;-86
2021/09/28 04:09:01;;;;;;;0.00;0.00;;;10.10;99.90;;;;;;6182558;23;20009;-86
2021/09/28 04:11:28;;;;;;;0.10;0.10;;;10.20;99.90;;;;;;6182555;23;20016;-86
2021/09/28 04:13:54;;;;;;;0.03;0.03;;;10.10;99.90;;;;;;6207426;23;20012;-86
2021/09/28 04:16:21;;;;;;;0.22;0.08;;;10.20;99.90;;;;;;6182582;23;20115;-86
2021/09/28 04:18:49;;;;;;;0.00;0.00;;;10.10;99.90;;;;;;6183013;23;20012;-86
2021/09/28 04:21:16;;;;;;;0.00;0.00;;;10.10;99.90;;;;;;6182643;23;20058;-86
2021/09/28 04:23:43;;;;;;;0.00;0.00;;;10.10;99.90;;;;;;6183227;23;20087;-86
2021/09/28 04:26:11;;;;;;;0.10;0.10;;;10.10;99.90;;;;;;6182963;23;20013;-86
2021/09/28 04:28:38;;;;;;;0.00;0.00;;;10.10;99.90;;;;;;6207542;23;20008;-86
2021/09/28 04:31:05;;;;;;;0.05;0.05;;;10.10;99.90;;;;;;6183532;23;20020;-86
2021/09/28 04:33:31;;;;;;;0.00;0.00;;;10.10;99.90;;;;;;6184330;23;20088;-86
2021/09/28 04:35:58;;;;;;;0.10;0.10;;;9.90;99.90;;;;;;6184197;23;20463;-85
2021/09/28 04:38:25;;;;;;;0.00;0.00;;;10.10;99.90;;;;;;6183814;23;20344;-86
2021/09/28 04:40:51;;;;;;;0.00;0.00;;;10.10;99.90;;;;;;6209038;23;20016;-85
2021/09/28 04:43:18;;;;;;;0.10;0.10;;;10.00;99.90;;;;;;6208524;23;20504;-86
2021/09/28 04:45:45;;;;;;;0.00;0.00;;;10.00;99.90;;;;;;6208961;23;20023;-86
2021/09/28 04:48:11;;;;;;;0.10;0.10;;;10.00;99.90;;;;;;6184118;23;20009;-86
2021/09/28 04:50:38;;;;;;;0.00;0.00;;;10.00;99.90;;;;;;6184039;23;20012;-86
2021/09/28 04:53:05;;;;;;;0.00;0.00;;;10.00;99.90;;;;;;6184465;23;20357;-86
2021/09/28 04:55:32;;;;;;;0.10;0.10;;;10.00;99.90;;;;;;6208334;23;20017;-86
2021/09/28 04:57:58;;;;;;;0.00;0.00;;;9.90;99.90;;;;;;6208905;23;20050;-86
2021/09/28 05:00:25;;;;;;;0.00;0.00;;;10.00;99.90;;;;;;6184081;23;20471;-86
2021/09/28 05:02:52;;;;;;;0.03;0.03;;;10.00;99.90;;;;;;6183889;23;20013;-86
2021/09/28 05:05:18;;;;;;;0.25;0.25;;;9.90;99.90;;;;;;6198575;23;20337;-86
2021/09/28 05:07:45;;;;;;;0.10;0.10;;;9.90;99.90;;;;;;6208596;23;20048;-86
2021/09/28 05:10:12;;;;;;;0.08;0.08;;;9.90;99.90;;;;;;6208501;23;20088;-86
2021/09/28 05:12:39;;;;;;;0.00;0.00;;;9.90;99.90;;;;;;6233522;23;20013;-86
2021/09/28 05:15:06;;;;;;;0.00;0.00;;;9.90;99.90;;;;;;6233270;23;20068;-87
2021/09/28 05:17:35;;;;;;;0.10;0.10;;;9.90;99.90;;;;;;6208736;23;20051;-88
2021/09/28 05:20:03;;;;;;;0.08;0.08;;;9.90;99.90;;;;;;6233771;23;20333;-90
2021/09/28 05:22:30;;;;;;;0.00;0.00;;;9.90;99.90;;;;;;6233429;23;20021;-90
2021/09/28 05:24:57;;;;;;;0.10;0.10;;;9.90;99.90;;;;;;6234042;23;20499;-90
2021/09/28 05:27:24;;;;;;;0.00;0.00;;;9.90;99.90;;;;;;6233958;23;20013;-91
2021/09/28 05:29:51;;;;;;;0.10;0.10;;;9.90;99.90;;;;;;6234032;23;20445;-91
2021/09/28 05:32:17;;;;;;;0.20;0.20;;;9.90;99.90;;;;;;6208810;23;20012;-89
2021/09/28 05:34:44;;;;;;;0.10;0.10;;;9.90;99.90;;;;;;6233580;23;20349;-90
2021/09/28 05:37:11;;;;;;;0.10;0.10;;;9.90;99.90;;;;;;6233416;23;20024;-90
2021/09/28 05:39:38;;;;;;;0.00;0.00;;;9.90;99.90;;;;;;6208813;23;20445;-90
2021/09/28 05:42:05;;;;;;;0.00;0.00;;;9.90;99.90;;;;;;6233179;23;20016;-90
2021/09/28 05:44:31;;;;;;;0.10;0.10;;;9.90;99.90;;;;;;6233448;23;20059;-86
2021/09/28 05:46:59;;;;;;;0.00;0.00;;;9.90;99.90;;;;;;6208480;23;20015;-87
2021/09/28 05:49:26;;;;;;;0.10;0.10;;;9.90;99.90;;;;;;6208878;23;20013;-88
2021/09/28 05:51:55;;;;;;;0.20;0.10;;;9.90;99.90;;;;;;6208826;23;20315;-91
2021/09/28 05:54:23;;;;;;;0.10;0.10;;;9.90;99.90;;;;;;6233409;23;20022;-87
2021/09/28 05:56:51;;;;;;;0.10;0.10;;;9.90;99.90;;;;;;6208480;23;20017;-87
2021/09/28 05:59:19;;;;;;;0.10;0.10;;;10.00;99.90;;;;;;6233376;23;20017;-90
2021/09/28 06:01:47;;;;;;;0.08;0.08;;;9.90;99.90;;;;;;6208195;23;20021;-88
2021/09/28 06:04:14;;;;;;;0.00;0.00;;;10.10;99.90;;;;;;6207282;23;20091;-87
2021/09/28 06:06:41;;;;;;;0.25;0.20;;;10.10;99.90;;;;;;6257238;23;20016;-88
2021/09/28 06:09:08;;;;;;;0.00;0.00;;;10.10;99.90;;;;;;6206806;23;20092;-85
2021/09/28 06:11:35;;;;;;;0.10;0.10;;;10.20;99.90;;;;;;6207686;23;20088;-88
2021/09/28 06:14:01;;;;;;;0.00;0.00;;;10.20;99.90;;;;;;6233167;23;20445;-88
2021/09/28 06:16:28;;;;;;;0.00;0.00;;;10.20;99.90;;;;;;6207372;23;20012;-88
2021/09/28 06:18:55;;;;;;;0.20;0.20;;;10.20;99.90;;;;;;6207961;23;20409;-89
2021/09/28 06:21:22;;;;;;;0.00;0.00;;;10.20;99.90;;;;;;6208487;23;20012;-87
2021/09/28 06:23:49;;;;;;;0.00;0.00;;;10.20;99.90;;;;;;6231930;23;20020;-86
2021/09/28 06:26:15;;;;;;;0.00;0.00;;;10.20;99.90;;;;;;6208339;23;20017;-86
2021/09/28 06:28:42;;;;;;;0.10;0.10;;;10.30;99.90;;;;;;6207471;23;20012;-87
2021/09/28 06:31:09;;;;;;;0.00;0.00;;;10.30;99.90;;;;;;6207676;23;20021;-86
2021/09/28 06:33:36;;;;;;;0.00;0.00;;;10.30;99.90;;;;;;6230437;23;20016;-85
2021/09/28 06:36:03;;;;;;;0.00;0.00;;;10.30;99.90;;;;;;6207039;23;20015;-86
2021/09/28 06:38:30;;;;;;;0.00;0.00;;;10.30;99.90;;;;;;6206677;23;20016;-86
2021/09/28 06:40:58;;;;;;;0.10;0.10;;;10.30;99.90;;;;;;6207160;23;20086;-86
2021/09/28 06:43:25;;;;;;;0.10;0.10;;;10.40;99.90;;;;;;6231920;23;20035;-85
2021/09/28 06:45:52;;;;;;;0.30;0.20;;;10.40;99.90;;;;;;6231406;23;20016;-82
2021/09/28 06:48:19;;;;;;;0.20;0.20;;;10.40;99.90;;;;;;6231944;23;20341;-85
2021/09/28 06:50:46;;;;;;;0.03;0.03;;;10.40;99.90;;;;;;6206787;23;20104;-85
2021/09/28 06:53:12;;;;;;;0.00;0.00;;;10.70;99.90;;;;;;6231505;23;20012;-84
2021/09/28 06:55:39;;;;;;;0.00;0.00;;;10.50;99.90;;;;;;6206416;23;20012;-85
2021/09/28 06:58:06;;;;;;;0.00;0.00;;;10.50;99.90;;;;;;6207297;23;20013;-85
2021/09/28 07:00:35;;;;;;;0.10;0.10;;;10.60;99.90;;;;;;6231244;23;20017;-85
2021/09/28 07:03:02;;;;;;;0.10;0.10;;;10.60;99.90;;;;;;6207355;23;20048;-86
2021/09/28 07:05:29;;;;;;;0.10;0.10;;;10.60;99.90;;;;;;6206564;23;20048;-85
2021/09/28 07:07:56;;;;;;;0.00;0.00;;;10.70;99.90;;;;;;6206953;23;20013;-86
2021/09/28 07:10:23;;;;;;;0.10;0.10;;;10.70;99.90;;;;;;6231562;23;20012;-87
2021/09/28 07:12:49;;;;;;;0.00;0.00;;;10.80;99.90;;;;;;6206479;23;20009;-85
2021/09/28 07:15:17;;;;;;;0.10;0.10;;;10.80;99.90;;;;;;6207367;23;20024;-86
2021/09/28 07:17:44;;;;;;;0.03;0.03;;;10.90;99.90;;;;;;6206629;23;20047;-85
2021/09/28 07:20:11;;;;;;;0.00;0.00;;;10.90;99.90;;;;;;6206989;23;20446;-86
2021/09/28 07:22:38;;;;;;;0.00;0.00;;;11.00;99.90;;;;;;6207065;23;20527;-85
2021/09/28 07:25:05;;;;;;;0.00;0.00;;;11.00;99.90;;;;;;6206425;23;20056;-86
2021/09/28 07:27:32;;;;;;;0.00;0.00;;;11.10;99.90;;;;;;6206941;23;20142;-86
2021/09/28 07:29:58;;;;;;;0.10;0.10;;;11.10;99.90;;;;;;6206767;23;20023;-87
2021/09/28 07:32:25;;;;;;;0.25;0.13;;;11.20;99.90;;;;;;6206916;23;20059;-86
2021/09/28 07:34:52;;;;;;;0.00;0.00;;;11.20;99.90;;;;;;6206214;23;20016;-86
2021/09/28 07:37:24;;;;;;;0.10;0.10;;;11.30;99.90;;;;;;6207088;23;20075;-85
2021/09/28 07:39:51;;;;;;;0.00;0.00;;;11.40;99.90;;;;;;6207885;23;20020;-86
2021/09/28 07:42:18;;;;;;;0.00;0.00;;;11.40;99.90;;;;;;6207630;23;20013;-90
2021/09/28 07:44:46;;;;;;;0.00;0.00;;;11.40;99.90;;;;;;6232134;23;20031;-87
2021/09/28 07:47:13;;;;;;;0.10;0.10;;;11.50;99.90;;;;;;6208171;23;20031;-87
2021/09/28 07:49:41;;;;;;;0.00;0.00;;;11.50;99.90;;;;;;6231831;23;20009;-88
2021/09/28 07:52:08;;;;;;;0.15;0.10;;;11.60;99.90;;;;;;6207151;23;20015;-87
2021/09/28 07:54:35;;;;;;;0.00;0.00;;;11.70;99.90;;;;;;6207184;23;20021;-90
2021/09/28 07:57:03;;;;;;;0.00;0.00;;;11.80;99.90;;;;;;6231937;23;20016;-86
2021/09/28 07:59:30;;;;;;;0.00;0.00;;;11.80;99.90;;;;;;6231761;23;20341;-85
2021/09/28 08:01:57;;;;;;;0.00;0.00;;;11.90;99.90;;;;;;6231110;23;20020;-86
2021/09/28 08:04:24;;;;;;;0.00;0.00;;;12.00;99.90;;;;;;6206149;23;20024;-87
2021/09/28 08:06:52;;;;;;;0.00;0.00;;;12.00;99.90;;;;;;6232379;23;20016;-86
2021/09/28 08:09:19;;;;;;;0.00;0.00;;;12.10;99.90;;;;;;6209268;23;20040;-86
2021/09/28 08:11:46;;;;;;;0.10;0.10;;;12.10;99.90;;;;;;6208379;23;20009;-86
2021/09/28 08:14:13;;;;;;;0.10;0.10;;;12.20;99.90;;;;;;6209908;23;20444;-91
2021/09/28 08:16:40;;;;;;;0.10;0.10;;;12.20;99.90;;;;;;6209475;23;20012;-87
2021/09/28 08:19:06;;;;;;;0.40;0.20;;;12.30;99.90;;;;;;6233522;23;20017;-86
2021/09/28 08:21:33;;;;;;;0.10;0.10;;;12.40;99.90;;;;;;6233383;23;20074;-88
2021/09/28 08:24:00;;;;;;;0.00;0.00;;;12.40;99.90;;;;;;6233018;23;20016;-86
2021/09/28 08:29:10;;;;;;;0.10;0.10;;;12.60;99.90;;;;;;6234297;23;20804;-91
2021/09/28 08:31:47;;;;;;;0.00;0.00;;;12.60;99.90;;;;;;6211985;23;20013;-87
2021/09/28 08:34:16;;;;;;;0.10;0.10;;;12.80;99.90;;;;;;6211031;23;20453;-86
2021/09/28 08:36:43;;;;;;;0.00;0.00;;;12.80;99.90;;;;;;6233535;23;20012;-88
2021/09/28 08:39:13;;;;;;;0.00;0.00;;;12.90;99.90;;;;;;6233725;23;20536;-89
2021/09/28 08:41:40;;;;;;;0.00;0.00;;;12.90;99.90;;;;;;6233405;23;20337;-88
2021/09/28 08:44:06;;;;;;;0.00;0.00;;;13.10;99.90;;;;;;6208689;23;20012;-88
2021/09/28 08:46:33;;;;;;;0.00;0.00;;;13.10;99.90;;;;;;6211553;23;20012;-85
2021/09/28 08:49:00;;;;;;;0.00;0.00;;;13.20;99.90;;;;;;6209681;23;20013;-85
2021/09/28 08:51:28;;;;;;;0.03;0.03;;;13.30;99.90;;;;;;6208230;23;20070;-85
2021/09/28 08:53:55;;;;;;;0.00;0.00;;;13.40;99.90;;;;;;6233018;23;20017;-83
2021/09/28 08:56:22;;;;;;;0.25;0.10;;;13.50;99.90;;;;;;6233317;23;20013;-86
2021/09/28 08:58:56;;;;;;;0.00;0.00;;;13.60;99.90;;;;;;6207964;23;20008;-86
2021/09/28 09:01:24;;;;;;;0.00;0.00;;;13.60;99.90;;;;;;6233229;23;20091;-87
2021/09/28 09:03:51;;;;;;;0.10;0.00;;;13.70;99.90;;;;;;6232349;23;20031;-89
2021/09/28 09:06:31;;;;;;;0.00;0.00;;;13.80;99.90;;;;;;6207653;23;20019;-88
2021/09/28 09:09:01;;;;;;;0.40;0.40;;;13.90;99.90;;;;;;6233566;23;20031;-87
2021/09/28 09:11:37;;;;;;;0.10;0.10;;;13.90;99.90;;;;;;6233457;23;20075;-88
2021/09/28 09:14:19;;;;;;;0.00;0.00;;;14.10;99.90;;;;;;6209280;23;20008;-91
2021/09/28 09:16:51;;;;;;;0.00;0.00;;;14.10;99.90;;;;;;6232943;23;20015;-87
2021/09/28 09:19:26;;;;;;;0.00;0.00;;;14.20;99.90;;;;;;6233904;23;20019;-86
2021/09/28 09:21:59;;;;;;;0.00;0.00;;;14.30;99.90;;;;;;6233113;23;20012;-86
2021/09/28 09:24:52;;;;;;;0.00;0.00;;;14.40;99.90;;;;;;6233713;23;20063;-89
2021/09/28 09:27:31;;;;;;;0.00;0.00;;;14.50;99.90;;;;;;6233916;23;20009;-86
2021/09/28 09:30:07;;;;;;;0.10;0.10;;;14.70;99.90;;;;;;6233516;23;20009;-88
2021/09/28 09:32:57;;;;;;;0.00;0.00;;;14.80;99.90;;;;;;6233611;23;20015;-86
2021/09/28 09:35:28;;;;;;;0.00;0.00;;;14.80;99.90;;;;;;6233902;23;20016;-88
2021/09/28 09:38:15;;;;;;;0.00;0.00;;;14.90;99.90;;;;;;6233431;23;20027;-88
2021/09/28 09:40:47;;;;;;;0.00;0.00;;;14.90;99.90;;;;;;6258730;23;20017;-87
2021/09/28 09:43:19;;;;;;;0.10;0.10;;;15.10;99.90;;;;;;6236006;23;20012;-92
2021/09/28 09:45:45;;;;;;;0.03;0.03;;;15.10;99.90;;;;;;6233010;23;20024;-93
2021/09/28 09:48:42;;;;;;;0.17;0.10;;;15.20;99.90;;;;;;6238941;23;20372;-94
2021/09/28 09:51:18;;;;;;;0.00;0.00;;;15.50;99.90;;;;;;6212845;23;19996;-96
2021/09/28 09:54:00;;;;;;;0.00;0.00;;;15.40;99.90;;;;;;6233659;23;20385;-88
2021/09/28 09:56:40;;;;;;;0.13;0.13;;;15.50;99.90;;;;;;6233572;23;20013;-91
2021/09/28 09:59:06;;;;;;;0.10;0.10;;;15.60;99.90;;;;;;6233580;23;20088;-88
2021/09/28 10:01:36;;;;;;;0.28;0.20;;;15.60;99.90;;;;;;6233464;23;20044;-92
2021/09/28 10:04:09;;;;;;;0.10;0.10;;;15.70;99.90;;;;;;6232946;23;20016;-88
2021/09/28 10:06:35;;;;;;;0.10;0.10;;;15.80;99.90;;;;;;6183868;23;20114;-87
2021/09/28 10:09:07;;;;;;;0.15;0.10;;;15.80;99.90;;;;;;6208271;23;20012;-87
2021/09/28 10:11:36;;;;;;;0.00;0.00;;;15.90;99.90;;;;;;6208203;23;20091;-88
2021/09/28 10:14:04;;;;;;;0.10;0.10;;;16.00;99.90;;;;;;6208020;23;20058;-91
2021/09/28 10:16:40;;;;;;;0.10;0.10;;;16.10;99.90;;;;;;6208844;23;20012;-92
2021/09/28 10:19:29;;;;;;;0.10;0.10;;;16.20;99.90;;;;;;6208253;23;20083;-88
2021/09/28 10:21:59;;;;;;;0.00;0.00;;;16.30;99.90;;;;;;6208517;23;20013;-90
2021/09/28 10:24:34;;;;;;;0.00;0.00;;;16.30;99.90;;;;;;6208767;23;20008;-89
2021/09/28 10:27:01;;;;;;;0.00;0.00;;;16.40;99.90;;;;;;6210364;23;20451;-88
2021/09/28 10:29:42;;;;;;;0.00;0.00;;;16.40;99.90;;;;;;6210873;23;20044;-89
2021/09/28 10:32:24;;;;;;;0.05;0.05;;;16.50;99.90;;;;;;6209613;23;20009;-94
2021/09/28 10:37:39;;;;;;;0.13;0.13;;;16.50;99.90;;;;;;6254911;23;20076;-92
2021/09/28 10:40:06;;;;;;;0.00;0.00;;;16.70;99.90;;;;;;6230198;23;20025;-92
2021/09/28 10:43:00;;;;;;;0.10;0.10;;;16.70;99.90;;;;;;6231815;23;20068;-92
2021/09/28 10:45:35;;;;;;;0.20;0.20;;;16.70;99.90;;;;;;6232160;23;20015;-90
2021/09/28 10:48:29;;;;;;;0.00;0.00;;;16.70;99.90;;;;;;6230970;23;20041;-88
2021/09/28 10:51:13;;;;;;;0.00;0.00;;;16.60;99.90;;;;;;6229355;23;20016;-89
2021/09/28 10:53:41;;;;;;;0.00;0.00;;;16.50;99.90;;;;;;6230116;23;20017;-89
2021/09/28 10:56:16;;;;;;;0.52;0.30;;;16.70;99.90;;;;;;6230805;23;20016;-90
2021/09/28 10:58:51;;;;;;;0.10;0.10;;;16.80;99.90;;;;;;6189734;23;20438;-88
2021/09/28 11:01:19;;;;;;;0.00;0.00;;;17.00;99.90;;;;;;6208336;23;20044;-87
2021/09/28 11:03:55;;;;;;;0.10;0.10;;;17.10;99.90;;;;;;6209057;23;20048;-90
2021/09/28 11:06:45;;;;;;;0.00;0.00;;;17.00;99.90;;;;;;6233644;23;20146;-88
2021/09/28 11:09:13;;;;;;;0.00;0.00;;;16.90;99.90;;;;;;6233598;23;20058;-90
2021/09/28 11:11:41;;;;;;;0.10;0.10;;;16.80;99.90;;;;;;6234386;23;20087;-89
2021/09/28 11:14:10;;;;;;;2.65;0.25;;;16.60;99.90;;;;;;6209036;23;20009;-89
2021/09/28 11:16:42;;;;;;;0.10;0.10;;;16.70;99.90;;;;;;6236174;23;20302;-92
2021/09/28 11:19:11;;;;;;;0.00;0.00;;;16.90;99.90;;;;;;6209920;23;20017;-88
2021/09/28 11:21:43;;;;;;;0.05;0.05;;;16.90;99.90;;;;;;6233325;23;20020;-86
2021/09/28 11:24:12;;;;;;;0.00;0.00;;;16.90;99.90;;;;;;6232803;23;20009;-87
2021/09/28 11:26:42;;;;;;;0.10;0.10;;;17.00;99.90;;;;;;6232702;23;20008;-86
2021/09/28 11:29:12;;;;;;;0.00;0.00;;;17.10;99.90;;;;;;6232713;23;20087;-87
2021/09/28 11:31:44;;;;;;;0.10;0.10;;;17.20;99.90;;;;;;6234803;23;20012;-88
2021/09/28 11:34:11;;;;;;;0.10;0.10;;;17.40;99.90;;;;;;6234239;23;20044;-87
2021/09/28 11:36:39;;;;;;;0.00;0.00;;;17.50;99.90;;;;;;6233556;23;20012;-87
2021/09/28 11:39:14;;;;;;;0.00;0.00;;;17.60;99.90;;;;;;6209268;23;20005;-92
2021/09/28 11:41:42;;;;;;;0.17;0.17;;;17.60;99.90;;;;;;6214993;23;20048;-89
2021/09/28 11:44:10;;;;;;;0.45;0.03;;;17.70;99.90;;;;;;6239940;23;19996;-89
2021/09/28 11:46:37;;;;;;;0.10;0.10;;;17.70;99.90;;;;;;6238166;23;20020;-90
2021/09/28 11:49:07;;;;;;;0.40;0.22;;;17.70;99.90;;;;;;6239988;23;19996;-90
2021/09/28 11:51:41;;;;;;;2.55;0.08;;;17.70;99.90;;;;;;6240494;23;20012;-89
2021/09/28 11:54:40;;;;;;;0.10;0.10;;;17.50;99.90;;;;;;6215619;23;20013;-91
2021/09/28 11:57:08;;;;;;;0.00;0.00;;;17.20;99.90;;;;;;6240475;23;20032;-92
2021/09/28 11:59:36;;;;;;;0.20;0.20;;;17.10;99.90;;;;;;6215971;23;20016;-88
2021/09/28 12:02:05;;;;;;;0.05;0.05;;;17.00;99.90;;;;;;6239660;23;20009;-89
2021/09/28 12:04:44;;;;;;;0.10;0.10;;;17.00;99.90;;;;;;6239163;23;20445;-88
2021/09/28 12:09:51;;;;;;;0.05;0.05;;;17.00;99.90;;;;;;6264370;23;20043;-89
2021/09/28 12:12:22;;;;;;;0.05;0.05;;;17.00;99.90;;;;;;6239931;23;20013;-90
2021/09/28 12:14:57;;;;;;;0.15;0.15;;;16.90;99.90;;;;;;6238627;23;20464;-90
2021/09/28 12:17:25;;;;;;;0.03;0.03;;;17.00;99.90;;;;;;6241202;23;20041;-88
2021/09/28 12:20:08;;;;;;;0.10;0.10;;;16.80;99.90;;;;;;6236142;23;20012;-91
2021/09/28 12:22:43;;;;;;;0.10;0.10;;;16.80;99.90;;;;;;6233442;23;20017;-89
2021/09/28 12:25:13;;;;;;;0.10;0.10;;;16.90;99.90;;;;;;6232221;23;20020;-86
2021/09/28 12:28:01;;;;;;;0.32;0.10;;;16.90;99.90;;;;;;6233392;23;20445;-89
2021/09/28 12:30:31;;;;;;;0.10;0.10;;;17.10;99.90;;;;;;6233009;23;20009;-90
2021/09/28 12:33:08;;;;;;;0.08;0.08;;;17.20;99.90;;;;;;6233008;23;20020;-93
2021/09/28 12:35:38;;;;;;;0.10;0.10;;;17.20;99.90;;;;;;6211830;23;20024;-91
2021/09/28 12:38:09;;;;;;;0.22;0.15;;;17.20;99.90;;;;;;6212247;23;20024;-92
2021/09/28 12:40:41;;;;;;;0.05;0.05;;;17.20;99.90;;;;;;6237832;23;20017;-91
2021/09/28 12:43:14;;;;;;;0.13;0.10;;;17.20;99.90;;;;;;6236723;23;20052;-94
2021/09/28 12:45:44;;;;;;;0.25;0.20;;;17.30;99.90;;;;;;6236118;23;20090;-92
2021/09/28 12:48:12;;;;;;;0.00;0.00;;;17.40;99.90;;;;;;6236111;23;20012;-90
2021/09/28 12:54:08;;;;;;;0.05;0.05;;;17.70;99.90;;;;;;6225753;23;20023;-92
2021/09/28 12:56:34;;;;;;;0.10;0.10;;;17.70;99.90;;;;;;6234792;23;20009;-88
2021/09/28 12:59:13;;;;;;;0.50;0.20;;;17.70;99.90;;;;;;6237089;23;20013;-88
2021/09/28 13:01:44;;;;;;;0.10;0.10;;;17.60;99.90;;;;;;6212260;23;20008;-86
2021/09/28 13:05:06;;;;;;;0.10;0.10;;;17.60;99.90;;;;;;6234132;23;20044;-88
2021/09/28 13:07:33;;;;;;;0.10;0.10;;;17.60;99.90;;;;;;6169108;23;20014;-89
2021/09/28 13:10:00;;;;;;;0.10;0.10;;;17.60;99.90;;;;;;6192357;23;20460;-88